Etusivu
METAR-TAF:

METAR-TAF

Lentoasemat :

Del Rio International Airport

Del Rio, Texas, Yhdysvallat

Leveyspiiri: 29-22-29N, Pituuspiiri: 100-55-25W, korkeus merenpinnasta: 304 m

Tämänhetkinen sää

Tämä raportti tehtiin 54 minuuttia sitten, kello 09.53 UTC
Tuuli 7 kn luoteesta
Lämpötila 14°C
Kosteus 67%
Ilmanpaine 1020 hPa
Näkyvyys: 16.1 km
selkeää

METAR: KDRT 060953Z AUTO 32007KT 10SM CLR 14/08 A3011 RMK AO2 SLP186 T01390078 $

Aika: 04:47 (10:47 UTC)

Sääennuste

Tämä raportti tehtiin 5 tuntia ja 4 minuuttia sitten, kello 05.43 UTC
Ennuste voimassa 06. päivästä klo 06 UTC - 07. päivään klo 06 UTC
Tuuli 3 kn koillisesta
Näkyvyys: 10 km
selkeää
From 06. päivästä klo 0900 UTC
Tuuli 12 kn pohjoisen/luoteesta
Näkyvyys: 10 km
Muutamia pilviä 25000 ft:n korkeudessa

TAF: KDRT 060543Z 0606/0706 04003KT P6SM SKC FM060900 33012KT P6SM FEW250

Säähavainnot ja -ennusteet yli 4000 lentoasemalta (METAR- ja TAF-raportit).

Käytössä olevat sääasemat on merkitty karttaan keltaisilla ja punaisilla pisteillä.

Aseta hiiri pisteen päälle nähdäksesi sääaseman nimen.

Klikkaa sitten nähdäksesi säähavainnot ja -ennusteet.

Kartan vaihtaminen: klikkaa mustalla rastilla varustettuja vihreitä pisteitä, niin voit zoomata sisään; viivalla varustettua vihreää pistettä, niin voit zoomata ulos tai vihreitä nuolia, niin pääset viereisille kartoille.


METAR-TAF: